sensor_id;sensor_type;location;lat;lon;timestamp;temperature;humidity
21787;DHT22;11055;50.870;4.316;2023-04-01T00:00:52;10.10;99.90
21787;DHT22;11055;50.870;4.316;2023-04-01T00:03:19;10.00;99.90
21787;DHT22;11055;50.870;4.316;2023-04-01T00:05:45;10.00;99.90
21787;DHT22;11055;50.870;4.316;2023-04-01T00:08:11;10.00;99.90
21787;DHT22;11055;50.870;4.316;2023-04-01T00:10:37;10.00;99.90
21787;DHT22;11055;50.870;4.316;2023-04-01T00:13:02;10.00;99.90
21787;DHT22;11055;50.870;4.316;2023-04-01T00:15:28;10.00;99.90
21787;DHT22;11055;50.870;4.316;2023-04-01T00:17:54;10.00;99.90
21787;DHT22;11055;50.870;4.316;2023-04-01T00:20:20;10.00;99.90
21787;DHT22;11055;50.870;4.316;2023-04-01T00:22:46;10.00;99.90
21787;DHT22;11055;50.870;4.316;2023-04-01T00:25:12;10.00;99.90
21787;DHT22;11055;50.870;4.316;2023-04-01T00:27:37;10.00;99.90
21787;DHT22;11055;50.870;4.316;2023-04-01T00:30:03;10.00;99.90
21787;DHT22;11055;50.870;4.316;2023-04-01T00:32:29;10.00;99.90
21787;DHT22;11055;50.870;4.316;2023-04-01T00:34:56;10.00;99.90
21787;DHT22;11055;50.870;4.316;2023-04-01T00:37:21;10.00;99.90
21787;DHT22;11055;50.870;4.316;2023-04-01T00:39:48;10.00;99.90
21787;DHT22;11055;50.870;4.316;2023-04-01T00:42:14;9.90;99.90
21787;DHT22;11055;50.870;4.316;2023-04-01T00:44:40;9.90;99.90
21787;DHT22;11055;50.870;4.316;2023-04-01T00:47:06;9.90;99.90
21787;DHT22;11055;50.870;4.316;2023-04-01T00:49:37;9.90;99.90
21787;DHT22;11055;50.870;4.316;2023-04-01T00:52:05;9.90;99.90
21787;DHT22;11055;50.870;4.316;2023-04-01T00:54:33;9.90;99.90
21787;DHT22;11055;50.870;4.316;2023-04-01T00:57:04;9.90;99.90
21787;DHT22;11055;50.870;4.316;2023-04-01T00:59:32;9.90;99.90
21787;DHT22;11055;50.870;4.316;2023-04-01T01:02:00;9.80;99.90
21787;DHT22;11055;50.870;4.316;2023-04-01T01:04:30;9.90;99.90
21787;DHT22;11055;50.870;4.316;2023-04-01T01:10:20;9.90;99.90
21787;DHT22;11055;50.870;4.316;2023-04-01T01:13:10;9.90;99.90
21787;DHT22;11055;50.870;4.316;2023-04-01T01:15:53;9.90;99.90
21787;DHT22;11055;50.870;4.316;2023-04-01T01:18:46;9.90;99.90
21787;DHT22;11055;50.870;4.316;2023-04-01T01:37:40;9.90;99.90
21787;DHT22;11055;50.870;4.316;2023-04-01T01:40:09;9.90;99.90
21787;DHT22;11055;50.870;4.316;2023-04-01T01:42:39;9.90;99.90
21787;DHT22;11055;50.870;4.316;2023-04-01T01:45:07;9.90;99.90
21787;DHT22;11055;50.870;4.316;2023-04-01T01:47:34;9.80;99.90
21787;DHT22;11055;50.870;4.316;2023-04-01T01:50:03;9.80;99.90
21787;DHT22;11055;50.870;4.316;2023-04-01T01:52:30;9.80;99.90
21787;DHT22;11055;50.870;4.316;2023-04-01T01:54:57;9.80;99.90
21787;DHT22;11055;50.870;4.316;2023-04-01T01:57:29;9.80;99.90
21787;DHT22;11055;50.870;4.316;2023-04-01T02:00:07;9.70;99.90
21787;DHT22;11055;50.870;4.316;2023-04-01T02:02:41;9.70;99.90
21787;DHT22;11055;50.870;4.316;2023-04-01T02:05:11;9.70;99.90
21787;DHT22;11055;50.870;4.316;2023-04-01T02:07:44;9.70;99.90
21787;DHT22;11055;50.870;4.316;2023-04-01T02:10:12;9.60;99.90
21787;DHT22;11055;50.870;4.316;2023-04-01T02:12:38;9.60;99.90
21787;DHT22;11055;50.870;4.316;2023-04-01T02:15:09;9.60;99.90
21787;DHT22;11055;50.870;4.316;2023-04-01T02:17:39;9.60;99.90
21787;DHT22;11055;50.870;4.316;2023-04-01T02:20:09;9.60;99.90
21787;DHT22;11055;50.870;4.316;2023-04-01T02:22:51;9.60;99.90
21787;DHT22;11055;50.870;4.316;2023-04-01T02:25:22;9.60;99.90
21787;DHT22;11055;50.870;4.316;2023-04-01T02:27:49;9.60;99.90
21787;DHT22;11055;50.870;4.316;2023-04-01T02:30:16;9.60;99.90
21787;DHT22;11055;50.870;4.316;2023-04-01T02:32:42;9.60;99.90
21787;DHT22;11055;50.870;4.316;2023-04-01T02:35:10;9.50;99.90
21787;DHT22;11055;50.870;4.316;2023-04-01T02:37:38;9.50;99.90
21787;DHT22;11055;50.870;4.316;2023-04-01T02:40:06;9.50;99.90
21787;DHT22;11055;50.870;4.316;2023-04-01T02:42:33;9.40;99.90
21787;DHT22;11055;50.870;4.316;2023-04-01T02:44:59;9.40;99.90
21787;DHT22;11055;50.870;4.316;2023-04-01T02:47:25;9.40;99.90
21787;DHT22;11055;50.870;4.316;2023-04-01T02:49:50;9.40;99.90
21787;DHT22;11055;50.870;4.316;2023-04-01T02:52:16;9.40;99.90
21787;DHT22;11055;50.870;4.316;2023-04-01T02:54:42;9.40;99.90
21787;DHT22;11055;50.870;4.316;2023-04-01T02:57:07;9.40;99.90
21787;DHT22;11055;50.870;4.316;2023-04-01T02:59:33;9.50;99.90
21787;DHT22;11055;50.870;4.316;2023-04-01T03:01:59;9.50;99.90
21787;DHT22;11055;50.870;4.316;2023-04-01T03:04:24;9.50;99.90
21787;DHT22;11055;50.870;4.316;2023-04-01T03:06:50;9.50;99.90
21787;DHT22;11055;50.870;4.316;2023-04-01T03:09:16;9.50;99.90
21787;DHT22;11055;50.870;4.316;2023-04-01T03:11:42;9.50;99.90
21787;DHT22;11055;50.870;4.316;2023-04-01T03:14:08;9.50;99.90
21787;DHT22;11055;50.870;4.316;2023-04-01T03:16:33;9.50;99.90
21787;DHT22;11055;50.870;4.316;2023-04-01T03:19:00;9.50;99.90
21787;DHT22;11055;50.870;4.316;2023-04-01T03:21:27;9.50;99.90
21787;DHT22;11055;50.870;4.316;2023-04-01T03:23:53;9.40;99.90
21787;DHT22;11055;50.870;4.316;2023-04-01T03:26:18;9.40;99.90
21787;DHT22;11055;50.870;4.316;2023-04-01T03:28:44;9.40;99.90
21787;DHT22;11055;50.870;4.316;2023-04-01T03:31:10;9.40;99.90
21787;DHT22;11055;50.870;4.316;2023-04-01T03:33:36;9.40;99.90
21787;DHT22;11055;50.870;4.316;2023-04-01T03:36:02;9.40;99.90
21787;DHT22;11055;50.870;4.316;2023-04-01T03:38:34;9.50;99.90
21787;DHT22;11055;50.870;4.316;2023-04-01T03:41:00;9.50;99.90
21787;DHT22;11055;50.870;4.316;2023-04-01T03:43:26;9.50;99.90
21787;DHT22;11055;50.870;4.316;2023-04-01T03:45:52;9.50;99.90
21787;DHT22;11055;50.870;4.316;2023-04-01T03:48:18;9.50;99.90
21787;DHT22;11055;50.870;4.316;2023-04-01T03:50:44;9.50;99.90
21787;DHT22;11055;50.870;4.316;2023-04-01T03:53:10;9.50;99.90
21787;DHT22;11055;50.870;4.316;2023-04-01T03:55:37;9.50;99.90
21787;DHT22;11055;50.870;4.316;2023-04-01T03:58:03;9.50;99.90
21787;DHT22;11055;50.870;4.316;2023-04-01T04:00:30;9.50;99.90
21787;DHT22;11055;50.870;4.316;2023-04-01T04:02:56;9.50;99.90
21787;DHT22;11055;50.870;4.316;2023-04-01T04:05:23;9.50;99.90
21787;DHT22;11055;50.870;4.316;2023-04-01T04:07:49;9.40;99.90
21787;DHT22;11055;50.870;4.316;2023-04-01T04:10:15;9.40;99.90
21787;DHT22;11055;50.870;4.316;2023-04-01T04:12:41;9.40;99.90
21787;DHT22;11055;50.870;4.316;2023-04-01T04:15:07;9.40;99.90
21787;DHT22;11055;50.870;4.316;2023-04-01T04:17:33;9.40;99.90
21787;DHT22;11055;50.870;4.316;2023-04-01T04:19:58;9.40;99.90
21787;DHT22;11055;50.870;4.316;2023-04-01T04:22:24;9.30;99.90
21787;DHT22;11055;50.870;4.316;2023-04-01T04:24:50;9.40;99.90
21787;DHT22;11055;50.870;4.316;2023-04-01T04:27:16;9.30;99.90
21787;DHT22;11055;50.870;4.316;2023-04-01T04:29:41;9.30;99.90
21787;DHT22;11055;50.870;4.316;2023-04-01T04:32:07;9.30;99.90
21787;DHT22;11055;50.870;4.316;2023-04-01T04:34:33;9.30;99.90
21787;DHT22;11055;50.870;4.316;2023-04-01T04:36:58;9.30;99.90
21787;DHT22;11055;50.870;4.316;2023-04-01T04:39:24;9.20;99.90
21787;DHT22;11055;50.870;4.316;2023-04-01T04:41:50;9.20;99.90
21787;DHT22;11055;50.870;4.316;2023-04-01T04:44:15;9.20;99.90
21787;DHT22;11055;50.870;4.316;2023-04-01T04:46:41;9.20;99.90
21787;DHT22;11055;50.870;4.316;2023-04-01T04:49:07;9.20;99.90
21787;DHT22;11055;50.870;4.316;2023-04-01T04:51:33;9.20;99.90
21787;DHT22;11055;50.870;4.316;2023-04-01T04:54:01;9.20;99.90
21787;DHT22;11055;50.870;4.316;2023-04-01T04:56:27;9.20;99.90
21787;DHT22;11055;50.870;4.316;2023-04-01T04:58:52;9.20;99.90
21787;DHT22;11055;50.870;4.316;2023-04-01T05:01:18;9.20;99.90
21787;DHT22;11055;50.870;4.316;2023-04-01T05:03:45;9.20;99.90
21787;DHT22;11055;50.870;4.316;2023-04-01T05:06:13;9.20;99.90
21787;DHT22;11055;50.870;4.316;2023-04-01T05:08:40;9.20;99.90
21787;DHT22;11055;50.870;4.316;2023-04-01T05:11:17;9.20;99.90
21787;DHT22;11055;50.870;4.316;2023-04-01T05:13:43;9.20;99.90
21787;DHT22;11055;50.870;4.316;2023-04-01T05:16:10;9.20;99.90
21787;DHT22;11055;50.870;4.316;2023-04-01T05:18:36;9.20;99.90
21787;DHT22;11055;50.870;4.316;2023-04-01T05:21:02;9.20;99.90
21787;DHT22;11055;50.870;4.316;2023-04-01T05:23:28;9.20;99.90
21787;DHT22;11055;50.870;4.316;2023-04-01T05:25:53;9.20;99.90
21787;DHT22;11055;50.870;4.316;2023-04-01T05:28:20;9.10;99.90
21787;DHT22;11055;50.870;4.316;2023-04-01T05:30:45;9.10;99.90
21787;DHT22;11055;50.870;4.316;2023-04-01T05:33:12;9.20;99.90
21787;DHT22;11055;50.870;4.316;2023-04-01T05:35:39;9.10;99.90
21787;DHT22;11055;50.870;4.316;2023-04-01T05:38:05;9.10;99.90
21787;DHT22;11055;50.870;4.316;2023-04-01T05:40:31;9.10;99.90
21787;DHT22;11055;50.870;4.316;2023-04-01T05:42:56;9.10;99.90
21787;DHT22;11055;50.870;4.316;2023-04-01T05:45:22;9.10;99.90
21787;DHT22;11055;50.870;4.316;2023-04-01T05:47:48;9.10;99.90
21787;DHT22;11055;50.870;4.316;2023-04-01T05:50:14;9.10;99.90
21787;DHT22;11055;50.870;4.316;2023-04-01T05:52:40;9.10;99.90
21787;DHT22;11055;50.870;4.316;2023-04-01T05:55:06;9.10;99.90
21787;DHT22;11055;50.870;4.316;2023-04-01T05:57:32;9.10;99.90
21787;DHT22;11055;50.870;4.316;2023-04-01T05:59:58;9.10;99.90
21787;DHT22;11055;50.870;4.316;2023-04-01T06:02:23;9.10;99.90
21787;DHT22;11055;50.870;4.316;2023-04-01T06:04:59;9.10;99.90
21787;DHT22;11055;50.870;4.316;2023-04-01T06:07:27;9.20;99.90
21787;DHT22;11055;50.870;4.316;2023-04-01T06:09:54;9.20;99.90
21787;DHT22;11055;50.870;4.316;2023-04-01T06:15:18;9.10;99.90
21787;DHT22;11055;50.870;4.316;2023-04-01T06:26:18;9.10;99.90
21787;DHT22;11055;50.870;4.316;2023-04-01T06:29:07;9.10;99.90
21787;DHT22;11055;50.870;4.316;2023-04-01T06:34:27;9.10;99.90
21787;DHT22;11055;50.870;4.316;2023-04-01T06:42:59;9.10;99.90
21787;DHT22;11055;50.870;4.316;2023-04-01T06:48:27;9.10;99.90
21787;DHT22;11055;50.870;4.316;2023-04-01T06:51:59;9.10;99.90
21787;DHT22;11055;50.870;4.316;2023-04-01T06:54:21;9.20;99.90
21787;DHT22;11055;50.870;4.316;2023-04-01T06:56:54;9.30;99.90
21787;DHT22;11055;50.870;4.316;2023-04-01T06:59:25;9.30;99.90
21787;DHT22;11055;50.870;4.316;2023-04-01T07:01:55;9.20;99.90
21787;DHT22;11055;50.870;4.316;2023-04-01T07:04:29;9.30;99.90
21787;DHT22;11055;50.870;4.316;2023-04-01T07:06:59;9.30;99.90
21787;DHT22;11055;50.870;4.316;2023-04-01T07:09:33;9.40;99.90
21787;DHT22;11055;50.870;4.316;2023-04-01T07:12:05;9.40;99.90
21787;DHT22;11055;50.870;4.316;2023-04-01T07:14:40;9.30;99.90
21787;DHT22;11055;50.870;4.316;2023-04-01T07:17:28;9.40;99.90
21787;DHT22;11055;50.870;4.316;2023-04-01T07:22:40;9.30;99.90
21787;DHT22;11055;50.870;4.316;2023-04-01T07:25:27;9.30;99.90
21787;DHT22;11055;50.870;4.316;2023-04-01T07:28:15;9.30;99.90
21787;DHT22;11055;50.870;4.316;2023-04-01T07:31:19;9.30;99.90
21787;DHT22;11055;50.870;4.316;2023-04-01T07:33:58;9.30;99.90
21787;DHT22;11055;50.870;4.316;2023-04-01T07:39:12;9.20;99.90
21787;DHT22;11055;50.870;4.316;2023-04-01T07:44:24;9.30;99.90
21787;DHT22;11055;50.870;4.316;2023-04-01T07:52:38;9.40;99.90
21787;DHT22;11055;50.870;4.316;2023-04-01T07:58:14;9.40;99.90
21787;DHT22;11055;50.870;4.316;2023-04-01T08:01:04;9.40;99.90
21787;DHT22;11055;50.870;4.316;2023-04-01T08:03:51;9.40;99.90
21787;DHT22;11055;50.870;4.316;2023-04-01T08:06:24;9.40;99.90
21787;DHT22;11055;50.870;4.316;2023-04-01T08:17:16;9.40;99.90
21787;DHT22;11055;50.870;4.316;2023-04-01T08:20:07;9.40;99.90
21787;DHT22;11055;50.870;4.316;2023-04-01T08:22:47;9.30;99.90
21787;DHT22;11055;50.870;4.316;2023-04-01T08:25:22;9.30;99.90
21787;DHT22;11055;50.870;4.316;2023-04-01T08:27:59;9.30;99.90
21787;DHT22;11055;50.870;4.316;2023-04-01T08:38:39;9.50;99.90
21787;DHT22;11055;50.870;4.316;2023-04-01T08:41:33;9.40;99.90
21787;DHT22;11055;50.870;4.316;2023-04-01T08:52:43;9.50;99.90
21787;DHT22;11055;50.870;4.316;2023-04-01T08:55:40;9.60;99.90
21787;DHT22;11055;50.870;4.316;2023-04-01T09:12:19;9.60;99.90
21787;DHT22;11055;50.870;4.316;2023-04-01T09:26:48;9.70;99.90
21787;DHT22;11055;50.870;4.316;2023-04-01T09:35:14;9.80;99.90
21787;DHT22;11055;50.870;4.316;2023-04-01T09:40:55;9.90;99.90
21787;DHT22;11055;50.870;4.316;2023-04-01T09:46:15;10.00;99.90
21787;DHT22;11055;50.870;4.316;2023-04-01T10:34:29;10.60;99.90
21787;DHT22;11055;50.870;4.316;2023-04-01T11:28:08;10.70;99.90
21787;DHT22;11055;50.870;4.316;2023-04-01T11:33:48;10.60;99.90
21787;DHT22;11055;50.870;4.316;2023-04-01T11:39:24;10.40;99.90
21787;DHT22;11055;50.870;4.316;2023-04-01T11:44:26;10.50;99.90
21787;DHT22;11055;50.870;4.316;2023-04-01T12:06:44;10.60;99.90
21787;DHT22;11055;50.870;4.316;2023-04-01T12:15:22;10.60;99.90
21787;DHT22;11055;50.870;4.316;2023-04-01T12:20:48;10.80;99.90
21787;DHT22;11055;50.870;4.316;2023-04-01T12:31:23;10.20;99.90
21787;DHT22;11055;50.870;4.316;2023-04-01T12:37:21;10.20;99.90
21787;DHT22;11055;50.870;4.316;2023-04-01T12:45:32;10.00;99.90
21787;DHT22;11055;50.870;4.316;2023-04-01T12:48:23;10.00;99.90
21787;DHT22;11055;50.870;4.316;2023-04-01T12:51:21;10.00;99.90
21787;DHT22;11055;50.870;4.316;2023-04-01T13:20:22;10.00;99.90
21787;DHT22;11055;50.870;4.316;2023-04-01T13:23:01;10.00;99.90
21787;DHT22;11055;50.870;4.316;2023-04-01T13:25:46;10.00;99.90
21787;DHT22;11055;50.870;4.316;2023-04-01T13:28:25;10.10;99.90
21787;DHT22;11055;50.870;4.316;2023-04-01T13:47:51;10.20;99.90
21787;DHT22;11055;50.870;4.316;2023-04-01T14:01:24;10.40;99.90
21787;DHT22;11055;50.870;4.316;2023-04-01T14:17:45;10.60;99.90
21787;DHT22;11055;50.870;4.316;2023-04-01T14:40:05;10.30;99.90
21787;DHT22;11055;50.870;4.316;2023-04-01T14:42:55;10.30;99.90
21787;DHT22;11055;50.870;4.316;2023-04-01T14:50:46;10.20;99.90
21787;DHT22;11055;50.870;4.316;2023-04-01T14:53:34;10.30;99.90
21787;DHT22;11055;50.870;4.316;2023-04-01T14:56:04;10.30;99.90
21787;DHT22;11055;50.870;4.316;2023-04-01T14:58:47;10.30;99.90
21787;DHT22;11055;50.870;4.316;2023-04-01T15:18:09;10.30;99.90
21787;DHT22;11055;50.870;4.316;2023-04-01T15:26:26;10.50;99.90
21787;DHT22;11055;50.870;4.316;2023-04-01T15:31:53;10.40;99.90
21787;DHT22;11055;50.870;4.316;2023-04-01T15:37:19;10.20;99.90
21787;DHT22;11055;50.870;4.316;2023-04-01T15:39:57;10.20;99.90
21787;DHT22;11055;50.870;4.316;2023-04-01T15:51:30;10.10;99.90
21787;DHT22;11055;50.870;4.316;2023-04-01T16:05:42;9.90;99.90
21787;DHT22;11055;50.870;4.316;2023-04-01T16:11:09;9.90;99.90
21787;DHT22;11055;50.870;4.316;2023-04-01T16:22:23;10.00;99.90
21787;DHT22;11055;50.870;4.316;2023-04-01T16:33:55;9.80;99.90
21787;DHT22;11055;50.870;4.316;2023-04-01T16:36:35;9.90;99.90
21787;DHT22;11055;50.870;4.316;2023-04-01T16:44:56;9.90;99.90
21787;DHT22;11055;50.870;4.316;2023-04-01T16:47:31;9.80;99.90
21787;DHT22;11055;50.870;4.316;2023-04-01T16:50:24;9.90;99.90
21787;DHT22;11055;50.870;4.316;2023-04-01T16:53:08;9.80;99.90
21787;DHT22;11055;50.870;4.316;2023-04-01T16:56:04;9.80;99.90
21787;DHT22;11055;50.870;4.316;2023-04-01T16:58:38;9.80;99.90
21787;DHT22;11055;50.870;4.316;2023-04-01T17:01:43;9.70;99.90
21787;DHT22;11055;50.870;4.316;2023-04-01T17:12:58;9.70;99.90
21787;DHT22;11055;50.870;4.316;2023-04-01T17:20:56;9.70;99.90
21787;DHT22;11055;50.870;4.316;2023-04-01T17:23:34;9.70;99.90
21787;DHT22;11055;50.870;4.316;2023-04-01T17:28:58;9.60;99.90
21787;DHT22;11055;50.870;4.316;2023-04-01T17:47:31;9.80;99.90
21787;DHT22;11055;50.870;4.316;2023-04-01T17:52:42;9.60;99.90
21787;DHT22;11055;50.870;4.316;2023-04-01T17:58:00;9.50;99.90
21787;DHT22;11055;50.870;4.316;2023-04-01T18:06:10;9.60;99.90
21787;DHT22;11055;50.870;4.316;2023-04-01T18:08:56;9.50;99.90
21787;DHT22;11055;50.870;4.316;2023-04-01T18:11:42;9.40;99.90
21787;DHT22;11055;50.870;4.316;2023-04-01T18:17:25;9.40;99.90
21787;DHT22;11055;50.870;4.316;2023-04-01T18:22:55;9.50;99.90
21787;DHT22;11055;50.870;4.316;2023-04-01T18:25:40;9.50;99.90
21787;DHT22;11055;50.870;4.316;2023-04-01T18:42:06;9.30;99.90
21787;DHT22;11055;50.870;4.316;2023-04-01T18:47:43;9.30;99.90
21787;DHT22;11055;50.870;4.316;2023-04-01T18:52:45;9.50;99.90
21787;DHT22;11055;50.870;4.316;2023-04-01T18:56:23;9.40;99.90
21787;DHT22;11055;50.870;4.316;2023-04-01T19:09:58;9.30;99.90
21787;DHT22;11055;50.870;4.316;2023-04-01T19:15:13;9.30;99.90
21787;DHT22;11055;50.870;4.316;2023-04-01T19:20:26;9.20;99.90
21787;DHT22;11055;50.870;4.316;2023-04-01T19:25:57;9.20;99.90
21787;DHT22;11055;50.870;4.316;2023-04-01T19:37:18;9.20;99.90
21787;DHT22;11055;50.870;4.316;2023-04-01T19:40:20;9.20;99.90
21787;DHT22;11055;50.870;4.316;2023-04-01T19:45:48;9.30;99.90
21787;DHT22;11055;50.870;4.316;2023-04-01T19:53:46;9.20;99.90
21787;DHT22;11055;50.870;4.316;2023-04-01T19:56:18;9.10;99.90
21787;DHT22;11055;50.870;4.316;2023-04-01T20:04:39;9.00;99.90
21787;DHT22;11055;50.870;4.316;2023-04-01T20:07:17;9.00;99.90
21787;DHT22;11055;50.870;4.316;2023-04-01T20:10:13;9.00;99.90
21787;DHT22;11055;50.870;4.316;2023-04-01T20:13:10;9.00;99.90
21787;DHT22;11055;50.870;4.316;2023-04-01T20:15:42;9.00;99.90
21787;DHT22;11055;50.870;4.316;2023-04-01T20:18:21;9.00;99.90
21787;DHT22;11055;50.870;4.316;2023-04-01T20:21:02;9.10;99.90
21787;DHT22;11055;50.870;4.316;2023-04-01T20:26:23;9.00;99.90
21787;DHT22;11055;50.870;4.316;2023-04-01T20:39:39;9.00;99.90
21787;DHT22;11055;50.870;4.316;2023-04-01T21:07:41;9.00;99.90
21787;DHT22;11055;50.870;4.316;2023-04-01T21:29:39;9.20;99.90
21787;DHT22;11055;50.870;4.316;2023-04-01T21:32:19;9.20;99.90
21787;DHT22;11055;50.870;4.316;2023-04-01T21:35:14;9.20;99.90
21787;DHT22;11055;50.870;4.316;2023-04-01T21:40:26;9.30;99.90
21787;DHT22;11055;50.870;4.316;2023-04-01T21:43:27;9.40;99.90
21787;DHT22;11055;50.870;4.316;2023-04-01T21:57:38;9.50;99.90
21787;DHT22;11055;50.870;4.316;2023-04-01T22:00:28;9.40;99.90
21787;DHT22;11055;50.870;4.316;2023-04-01T22:05:44;9.50;99.90
21787;DHT22;11055;50.870;4.316;2023-04-01T22:11:24;9.40;99.90
21787;DHT22;11055;50.870;4.316;2023-04-01T22:14:30;9.40;99.90
21787;DHT22;11055;50.870;4.316;2023-04-01T22:16:57;9.40;99.90
21787;DHT22;11055;50.870;4.316;2023-04-01T22:28:21;9.70;99.90
21787;DHT22;11055;50.870;4.316;2023-04-01T22:31:00;9.70;99.90
21787;DHT22;11055;50.870;4.316;2023-04-01T22:36:54;9.60;99.90
21787;DHT22;11055;50.870;4.316;2023-04-01T22:39:33;9.60;99.90
21787;DHT22;11055;50.870;4.316;2023-04-01T22:42:06;9.50;99.90
21787;DHT22;11055;50.870;4.316;2023-04-01T22:47:26;9.60;99.90
21787;DHT22;11055;50.870;4.316;2023-04-01T22:50:10;9.50;99.90
21787;DHT22;11055;50.870;4.316;2023-04-01T22:52:41;9.50;99.90
21787;DHT22;11055;50.870;4.316;2023-04-01T22:55:15;9.50;99.90
21787;DHT22;11055;50.870;4.316;2023-04-01T22:57:50;9.50;99.90
21787;DHT22;11055;50.870;4.316;2023-04-01T23:00:28;9.50;99.90
21787;DHT22;11055;50.870;4.316;2023-04-01T23:05:55;9.60;99.90
21787;DHT22;11055;50.870;4.316;2023-04-01T23:11:02;9.70;99.90
21787;DHT22;11055;50.870;4.316;2023-04-01T23:13:39;9.60;99.90
21787;DHT22;11055;50.870;4.316;2023-04-01T23:16:08;9.50;99.90
21787;DHT22;11055;50.870;4.316;2023-04-01T23:19:11;9.40;99.90
21787;DHT22;11055;50.870;4.316;2023-04-01T23:21:39;9.40;99.90
21787;DHT22;11055;50.870;4.316;2023-04-01T23:24:19;9.50;99.90
21787;DHT22;11055;50.870;4.316;2023-04-01T23:27:20;9.50;99.90
21787;DHT22;11055;50.870;4.316;2023-04-01T23:29:48;9.50;99.90
21787;DHT22;11055;50.870;4.316;2023-04-01T23:32:19;9.50;99.90
21787;DHT22;11055;50.870;4.316;2023-04-01T23:34:49;9.40;99.90
21787;DHT22;11055;50.870;4.316;2023-04-01T23:37:15;9.40;99.90
21787;DHT22;11055;50.870;4.316;2023-04-01T23:39:51;9.40;99.90
21787;DHT22;11055;50.870;4.316;2023-04-01T23:42:24;9.40;99.90
21787;DHT22;11055;50.870;4.316;2023-04-01T23:44:56;9.40;99.90
21787;DHT22;11055;50.870;4.316;2023-04-01T23:47:40;9.30;99.90
21787;DHT22;11055;50.870;4.316;2023-04-01T23:50:20;9.20;99.90
21787;DHT22;11055;50.870;4.316;2023-04-01T23:52:53;9.20;99.90
21787;DHT22;11055;50.870;4.316;2023-04-01T23:55:33;9.10;99.90
